sensor_id;sensor_type;location;lat;lon;timestamp;pressure;altitude;pressure_sealevel;temperature;humidity
71795;BME280;59641;45.188;5.712;2023-02-15T00:01:10;100632.22;;;10.16;46.47
71795;BME280;59641;45.188;5.712;2023-02-15T00:03:36;100631.56;;;10.14;46.49
71795;BME280;59641;45.188;5.712;2023-02-15T00:06:03;100634.63;;;10.11;46.53
71795;BME280;59641;45.188;5.712;2023-02-15T00:08:29;100619.53;;;10.10;46.73
71795;BME280;59641;45.188;5.712;2023-02-15T00:11:10;100628.44;;;10.10;46.71
71795;BME280;59641;45.188;5.712;2023-02-15T00:13:35;100619.53;;;10.10;46.47
71795;BME280;59641;45.188;5.712;2023-02-15T00:16:06;100624.25;;;10.08;46.63
71795;BME280;59641;45.188;5.712;2023-02-15T00:18:32;100626.31;;;10.06;46.73
71795;BME280;59641;45.188;5.712;2023-02-15T00:21:02;100627.31;;;10.05;46.69
71795;BME280;59641;45.188;5.712;2023-02-15T00:23:28;100619.47;;;10.03;46.53
71795;BME280;59641;45.188;5.712;2023-02-15T00:26:05;100617.59;;;10.03;46.82
71795;BME280;59641;45.188;5.712;2023-02-15T00:28:31;100619.47;;;10.03;46.66
71795;BME280;59641;45.188;5.712;2023-02-15T00:31:10;100615.91;;;10.02;46.74
71795;BME280;59641;45.188;5.712;2023-02-15T00:33:37;100613.63;;;9.99;46.67
71795;BME280;59641;45.188;5.712;2023-02-15T00:36:05;100611.75;;;10.00;46.80
71795;BME280;59641;45.188;5.712;2023-02-15T00:38:31;100612.31;;;9.95;46.83
71795;BME280;59641;45.188;5.712;2023-02-15T00:40:58;100608.16;;;9.93;47.09
71795;BME280;59641;45.188;5.712;2023-02-15T00:43:24;100602.78;;;9.93;46.85
71795;BME280;59641;45.188;5.712;2023-02-15T00:45:50;100608.53;;;9.90;46.98
71795;BME280;59641;45.188;5.712;2023-02-15T00:48:15;100611.38;;;9.88;46.92
71795;BME280;59641;45.188;5.712;2023-02-15T00:50:41;100615.66;;;9.82;47.07
71795;BME280;59641;45.188;5.712;2023-02-15T00:53:06;100610.66;;;9.79;47.25
71795;BME280;59641;45.188;5.712;2023-02-15T00:55:32;100614.34;;;9.78;47.28
71795;BME280;59641;45.188;5.712;2023-02-15T00:57:58;100617.22;;;9.77;47.46
71795;BME280;59641;45.188;5.712;2023-02-15T01:00:23;100619.91;;;9.77;47.14
71795;BME280;59641;45.188;5.712;2023-02-15T01:02:49;100613.25;;;9.73;47.39
71795;BME280;59641;45.188;5.712;2023-02-15T01:05:14;100615.28;;;9.71;47.33
71795;BME280;59641;45.188;5.712;2023-02-15T01:07:39;100615.66;;;9.68;47.16
71795;BME280;59641;45.188;5.712;2023-02-15T01:10:06;100616.84;;;9.65;47.58
71795;BME280;59641;45.188;5.712;2023-02-15T01:12:32;100618.03;;;9.63;47.50
71795;BME280;59641;45.188;5.712;2023-02-15T01:14:58;100613.34;;;9.65;47.52
71795;BME280;59641;45.188;5.712;2023-02-15T01:17:23;100623.03;;;9.66;47.56
71795;BME280;59641;45.188;5.712;2023-02-15T01:19:48;100623.03;;;9.66;47.44
71795;BME280;59641;45.188;5.712;2023-02-15T01:22:14;100618.50;;;9.66;47.55
71795;BME280;59641;45.188;5.712;2023-02-15T01:24:39;100619.31;;;9.67;47.51
71795;BME280;59641;45.188;5.712;2023-02-15T01:27:04;100616.84;;;9.65;47.44
71795;BME280;59641;45.188;5.712;2023-02-15T01:29:30;100614.34;;;9.64;47.47
71795;BME280;59641;45.188;5.712;2023-02-15T01:31:55;100616.56;;;9.60;47.57
71795;BME280;59641;45.188;5.712;2023-02-15T01:34:21;100615.91;;;9.58;47.59
71795;BME280;59641;45.188;5.712;2023-02-15T01:36:46;100623.94;;;9.58;47.65
71795;BME280;59641;45.188;5.712;2023-02-15T01:39:11;100617.13;;;9.55;47.84
71795;BME280;59641;45.188;5.712;2023-02-15T01:41:37;100619.59;;;9.57;47.69
71795;BME280;59641;45.188;5.712;2023-02-15T01:44:03;100619.41;;;9.58;47.56
71795;BME280;59641;45.188;5.712;2023-02-15T01:46:33;100627.47;;;9.58;47.46
71795;BME280;59641;45.188;5.712;2023-02-15T01:49:03;100625.97;;;9.56;47.61
71795;BME280;59641;45.188;5.712;2023-02-15T01:51:34;100629.47;;;9.56;47.68
71795;BME280;59641;45.188;5.712;2023-02-15T01:54:34;100630.50;;;9.55;47.69
71795;BME280;59641;45.188;5.712;2023-02-15T01:57:03;100631.34;;;9.56;47.78
71795;BME280;59641;45.188;5.712;2023-02-15T01:59:31;100624.13;;;9.56;47.90
71795;BME280;59641;45.188;5.712;2023-02-15T02:01:59;100625.81;;;9.57;47.70
71795;BME280;59641;45.188;5.712;2023-02-15T02:06:54;100624.94;;;9.57;47.75
71795;BME280;59641;45.188;5.712;2023-02-15T02:09:20;100628.50;;;9.57;47.88
71795;BME280;59641;45.188;5.712;2023-02-15T02:11:47;100632.81;;;9.58;47.71
71795;BME280;59641;45.188;5.712;2023-02-15T02:14:13;100628.50;;;9.57;47.84
71795;BME280;59641;45.188;5.712;2023-02-15T02:30:50;100627.88;;;9.47;47.65
71795;BME280;59641;45.188;5.712;2023-02-15T02:36:03;100627.22;;;9.45;47.70
71795;BME280;59641;45.188;5.712;2023-02-15T02:39:07;100626.41;;;9.45;47.77
71795;BME280;59641;45.188;5.712;2023-02-15T02:44:22;100621.78;;;9.38;47.71
71795;BME280;59641;45.188;5.712;2023-02-15T02:46:52;100620.09;;;9.37;47.87
71795;BME280;59641;45.188;5.712;2023-02-15T02:49:40;100624.81;;;9.35;47.89
71795;BME280;59641;45.188;5.712;2023-02-15T02:54:56;100634.03;;;9.33;47.92
71795;BME280;59641;45.188;5.712;2023-02-15T02:57:24;100628.88;;;9.31;47.93
71795;BME280;59641;45.188;5.712;2023-02-15T02:59:51;100630.75;;;9.31;47.94
71795;BME280;59641;45.188;5.712;2023-02-15T03:02:23;100635.25;;;9.30;48.05
71795;BME280;59641;45.188;5.712;2023-02-15T03:04:55;100630.09;;;9.29;47.96
71795;BME280;59641;45.188;5.712;2023-02-15T03:07:30;100630.25;;;9.27;48.03
71795;BME280;59641;45.188;5.712;2023-02-15T03:09:58;100626.75;;;9.27;48.19
71795;BME280;59641;45.188;5.712;2023-02-15T03:12:30;100627.94;;;9.24;48.16
71795;BME280;59641;45.188;5.712;2023-02-15T03:15:08;100634.28;;;9.23;47.92
71795;BME280;59641;45.188;5.712;2023-02-15T03:17:39;100630.34;;;9.19;48.12
71795;BME280;59641;45.188;5.712;2023-02-15T03:20:30;100629.00;;;9.15;48.31
71795;BME280;59641;45.188;5.712;2023-02-15T03:23:12;100629.38;;;9.12;48.20
71795;BME280;59641;45.188;5.712;2023-02-15T03:25:43;100629.56;;;9.10;48.27
71795;BME280;59641;45.188;5.712;2023-02-15T03:28:16;100628.72;;;9.10;48.25
71795;BME280;59641;45.188;5.712;2023-02-15T03:30:45;100635.06;;;9.09;48.40
71795;BME280;59641;45.188;5.712;2023-02-15T03:33:14;100620.19;;;9.06;48.31
71795;BME280;59641;45.188;5.712;2023-02-15T03:36:00;100619.53;;;9.04;48.41
71795;BME280;59641;45.188;5.712;2023-02-15T03:38:37;100631.94;;;9.05;48.36
71795;BME280;59641;45.188;5.712;2023-02-15T03:41:07;100623.25;;;9.03;48.48
71795;BME280;59641;45.188;5.712;2023-02-15T03:46:50;100632.31;;;9.02;48.24
71795;BME280;59641;45.188;5.712;2023-02-15T03:49:50;100627.13;;;9.01;48.48
71795;BME280;59641;45.188;5.712;2023-02-15T03:52:20;100628.31;;;8.98;48.27
71795;BME280;59641;45.188;5.712;2023-02-15T03:54:48;100628.84;;;8.93;48.31
71795;BME280;59641;45.188;5.712;2023-02-15T03:57:21;100623.84;;;8.90;48.23
71795;BME280;59641;45.188;5.712;2023-02-15T04:00:13;100620.88;;;8.85;48.24
71795;BME280;59641;45.188;5.712;2023-02-15T04:03:17;100628.59;;;8.80;48.40
71795;BME280;59641;45.188;5.712;2023-02-15T04:05:47;100627.94;;;8.78;48.54
71795;BME280;59641;45.188;5.712;2023-02-15T04:08:12;100632.63;;;8.76;48.13
71795;BME280;59641;45.188;5.712;2023-02-15T04:10:38;100632.81;;;8.74;48.41
71795;BME280;59641;45.188;5.712;2023-02-15T04:13:29;100634.00;;;8.72;48.23
71795;BME280;59641;45.188;5.712;2023-02-15T04:15:54;100638.69;;;8.70;48.40
71795;BME280;59641;45.188;5.712;2023-02-15T04:18:40;100634.69;;;8.66;48.40
71795;BME280;59641;45.188;5.712;2023-02-15T04:21:25;100637.06;;;8.61;48.46
71795;BME280;59641;45.188;5.712;2023-02-15T04:24:11;100636.59;;;8.57;48.46
71795;BME280;59641;45.188;5.712;2023-02-15T04:26:55;100642.47;;;8.52;48.71
71795;BME280;59641;45.188;5.712;2023-02-15T04:29:22;100638.97;;;8.52;48.62
71795;BME280;59641;45.188;5.712;2023-02-15T04:31:48;100642.81;;;8.49;48.60
71795;BME280;59641;45.188;5.712;2023-02-15T04:34:14;100642.53;;;8.44;48.68
71795;BME280;59641;45.188;5.712;2023-02-15T04:36:40;100641.19;;;8.40;48.64
71795;BME280;59641;45.188;5.712;2023-02-15T04:39:06;100649.88;;;8.42;48.72
71795;BME280;59641;45.188;5.712;2023-02-15T04:41:33;100647.50;;;8.39;48.96
71795;BME280;59641;45.188;5.712;2023-02-15T04:43:58;100647.19;;;8.34;48.92
71795;BME280;59641;45.188;5.712;2023-02-15T04:46:25;100651.25;;;8.30;49.12
71795;BME280;59641;45.188;5.712;2023-02-15T04:48:51;100644.88;;;8.31;49.04
71795;BME280;59641;45.188;5.712;2023-02-15T04:51:16;100649.19;;;8.32;48.97
71795;BME280;59641;45.188;5.712;2023-02-15T04:53:42;100634.19;;;8.31;48.96
71795;BME280;59641;45.188;5.712;2023-02-15T04:56:07;100633.34;;;8.30;49.03
71795;BME280;59641;45.188;5.712;2023-02-15T04:58:33;100632.53;;;8.30;49.25
71795;BME280;59641;45.188;5.712;2023-02-15T05:00:58;100638.88;;;8.29;49.06
71795;BME280;59641;45.188;5.712;2023-02-15T05:03:24;100642.19;;;8.31;49.19
71795;BME280;59641;45.188;5.712;2023-02-15T05:05:50;100631.66;;;8.29;49.02
71795;BME280;59641;45.188;5.712;2023-02-15T05:08:15;100630.00;;;8.28;49.19
71795;BME280;59641;45.188;5.712;2023-02-15T05:10:41;100630.19;;;8.27;49.20
71795;BME280;59641;45.188;5.712;2023-02-15T05:13:07;100626.19;;;8.23;49.28
71795;BME280;59641;45.188;5.712;2023-02-15T05:15:32;100627.72;;;8.17;49.16
71795;BME280;59641;45.188;5.712;2023-02-15T05:17:57;100629.41;;;8.10;49.61
71795;BME280;59641;45.188;5.712;2023-02-15T05:20:23;100630.78;;;8.06;49.74
71795;BME280;59641;45.188;5.712;2023-02-15T05:22:48;100631.78;;;8.05;49.77
71795;BME280;59641;45.188;5.712;2023-02-15T05:25:14;100630.13;;;8.04;49.82
71795;BME280;59641;45.188;5.712;2023-02-15T05:27:58;100624.09;;;8.02;49.89
71795;BME280;59641;45.188;5.712;2023-02-15T05:30:41;100624.47;;;7.99;50.00
71795;BME280;59641;45.188;5.712;2023-02-15T05:33:07;100613.94;;;7.97;50.02
71795;BME280;59641;45.188;5.712;2023-02-15T05:35:34;100619.78;;;7.93;50.20
71795;BME280;59641;45.188;5.712;2023-02-15T05:37:59;100608.25;;;7.92;50.12
71795;BME280;59641;45.188;5.712;2023-02-15T05:40:25;100614.28;;;7.94;50.28
71795;BME280;59641;45.188;5.712;2023-02-15T05:42:50;100620.28;;;7.96;50.38
71795;BME280;59641;45.188;5.712;2023-02-15T05:45:16;100620.75;;;8.00;50.37
71795;BME280;59641;45.188;5.712;2023-02-15T05:47:41;100617.75;;;8.03;50.53
71795;BME280;59641;45.188;5.712;2023-02-15T05:50:07;100632.28;;;8.08;50.31
71795;BME280;59641;45.188;5.712;2023-02-15T05:52:34;100633.75;;;8.11;50.31
71795;BME280;59641;45.188;5.712;2023-02-15T05:54:59;100637.94;;;8.14;50.24
71795;BME280;59641;45.188;5.712;2023-02-15T05:57:26;100636.75;;;8.16;50.22
71795;BME280;59641;45.188;5.712;2023-02-15T05:59:52;100636.75;;;8.16;50.24
71795;BME280;59641;45.188;5.712;2023-02-15T06:02:17;100642.09;;;8.16;50.03
71795;BME280;59641;45.188;5.712;2023-02-15T06:04:43;100642.09;;;8.16;49.96
71795;BME280;59641;45.188;5.712;2023-02-15T06:07:08;100639.78;;;8.13;49.93
71795;BME280;59641;45.188;5.712;2023-02-15T06:09:33;100640.44;;;8.07;50.05
71795;BME280;59641;45.188;5.712;2023-02-15T06:11:59;100634.63;;;8.03;50.04
71795;BME280;59641;45.188;5.712;2023-02-15T06:14:24;100641.47;;;7.98;50.08
71795;BME280;59641;45.188;5.712;2023-02-15T06:16:50;100647.34;;;7.93;50.30
71795;BME280;59641;45.188;5.712;2023-02-15T06:19:15;100644.00;;;7.91;50.14
71795;BME280;59641;45.188;5.712;2023-02-15T06:21:40;100647.69;;;7.90;50.00
71795;BME280;59641;45.188;5.712;2023-02-15T06:24:08;100650.19;;;7.83;50.08
71795;BME280;59641;45.188;5.712;2023-02-15T06:26:33;100648.91;;;7.79;50.07
71795;BME280;59641;45.188;5.712;2023-02-15T06:28:59;100655.22;;;7.78;50.45
71795;BME280;59641;45.188;5.712;2023-02-15T06:31:24;100660.09;;;7.75;50.43
71795;BME280;59641;45.188;5.712;2023-02-15T06:33:49;100662.75;;;7.66;50.51
71795;BME280;59641;45.188;5.712;2023-02-15T06:36:15;100666.13;;;7.60;50.71
71795;BME280;59641;45.188;5.712;2023-02-15T06:38:40;100667.94;;;7.60;51.23
71795;BME280;59641;45.188;5.712;2023-02-15T06:41:05;100662.25;;;7.55;50.95
71795;BME280;59641;45.188;5.712;2023-02-15T06:43:31;100667.94;;;7.52;51.02
71795;BME280;59641;45.188;5.712;2023-02-15T06:45:57;100660.28;;;7.49;51.14
71795;BME280;59641;45.188;5.712;2023-02-15T06:48:23;100666.94;;;7.44;51.10
71795;BME280;59641;45.188;5.712;2023-02-15T06:50:48;100666.28;;;7.42;51.25
71795;BME280;59641;45.188;5.712;2023-02-15T06:53:14;100666.47;;;7.41;51.39
71795;BME280;59641;45.188;5.712;2023-02-15T06:55:39;100670.94;;;7.40;51.38
71795;BME280;59641;45.188;5.712;2023-02-15T06:58:05;100681.31;;;7.43;51.09
71795;BME280;59641;45.188;5.712;2023-02-15T07:00:30;100674.13;;;7.44;51.36
71795;BME280;59641;45.188;5.712;2023-02-15T07:02:57;100669.47;;;7.46;51.58
71795;BME280;59641;45.188;5.712;2023-02-15T07:05:23;100677.97;;;7.50;51.55
71795;BME280;59641;45.188;5.712;2023-02-15T07:07:49;100677.63;;;7.53;51.64
71795;BME280;59641;45.188;5.712;2023-02-15T07:10:14;100676.28;;;7.57;51.55
71795;BME280;59641;45.188;5.712;2023-02-15T07:12:40;100676.13;;;7.58;51.55
71795;BME280;59641;45.188;5.712;2023-02-15T07:15:17;100678.47;;;7.61;51.52
71795;BME280;59641;45.188;5.712;2023-02-15T07:17:43;100678.97;;;7.65;51.32
71795;BME280;59641;45.188;5.712;2023-02-15T07:20:20;100674.28;;;7.67;51.41
71795;BME280;59641;45.188;5.712;2023-02-15T07:22:47;100683.97;;;7.68;51.41
71795;BME280;59641;45.188;5.712;2023-02-15T07:25:13;100679.47;;;7.68;51.53
71795;BME280;59641;45.188;5.712;2023-02-15T07:27:39;100687.47;;;7.68;51.26
71795;BME280;59641;45.188;5.712;2023-02-15T07:30:07;100684.13;;;7.66;51.26
71795;BME280;59641;45.188;5.712;2023-02-15T07:32:33;100683.66;;;7.63;51.52
71795;BME280;59641;45.188;5.712;2023-02-15T07:34:59;100684.16;;;7.58;51.41
71795;BME280;59641;45.188;5.712;2023-02-15T07:37:25;100679.97;;;7.56;51.26
71795;BME280;59641;45.188;5.712;2023-02-15T07:39:51;100671.63;;;7.51;51.32
71795;BME280;59641;45.188;5.712;2023-02-15T07:42:16;100675.63;;;7.46;51.37
71795;BME280;59641;45.188;5.712;2023-02-15T07:44:43;100681.13;;;7.45;51.57
71795;BME280;59641;45.188;5.712;2023-02-15T07:47:08;100675.13;;;7.43;51.33
71795;BME280;59641;45.188;5.712;2023-02-15T07:49:33;100667.44;;;7.40;51.40
71795;BME280;59641;45.188;5.712;2023-02-15T07:52:00;100669.44;;;7.38;51.47
71795;BME280;59641;45.188;5.712;2023-02-15T07:54:26;100673.97;;;7.37;51.73
71795;BME280;59641;45.188;5.712;2023-02-15T07:56:51;100672.94;;;7.38;51.50
71795;BME280;59641;45.188;5.712;2023-02-15T07:59:17;100672.63;;;7.41;51.78
71795;BME280;59641;45.188;5.712;2023-02-15T08:01:42;100666.78;;;7.46;51.90
71795;BME280;59641;45.188;5.712;2023-02-15T08:04:08;100669.94;;;7.50;51.73
71795;BME280;59641;45.188;5.712;2023-02-15T08:06:36;100666.44;;;7.49;51.61
71795;BME280;59641;45.188;5.712;2023-02-15T08:09:07;100669.94;;;7.50;51.67
71795;BME280;59641;45.188;5.712;2023-02-15T08:11:35;100666.44;;;7.49;51.77
71795;BME280;59641;45.188;5.712;2023-02-15T08:14:19;100663.28;;;7.54;51.81
71795;BME280;59641;45.188;5.712;2023-02-15T08:19:19;100663.44;;;7.52;51.74
71795;BME280;59641;45.188;5.712;2023-02-15T08:21:47;100660.59;;;7.54;52.05
71795;BME280;59641;45.188;5.712;2023-02-15T08:24:14;100666.63;;;7.56;51.85
71795;BME280;59641;45.188;5.712;2023-02-15T08:26:40;100652.44;;;7.55;51.67
71795;BME280;59641;45.188;5.712;2023-02-15T08:29:07;100663.94;;;7.56;51.76
71795;BME280;59641;45.188;5.712;2023-02-15T08:31:34;100658.75;;;7.54;51.82
71795;BME280;59641;45.188;5.712;2023-02-15T08:33:59;100650.59;;;7.56;51.89
71795;BME280;59641;45.188;5.712;2023-02-15T08:36:28;100653.06;;;7.57;51.73
71795;BME280;59641;45.188;5.712;2023-02-15T08:38:57;100656.41;;;7.59;51.72
71795;BME280;59641;45.188;5.712;2023-02-15T08:41:31;100648.25;;;7.61;51.67
71795;BME280;59641;45.188;5.712;2023-02-15T08:43:59;100637.56;;;7.61;51.67
71795;BME280;59641;45.188;5.712;2023-02-15T08:46:27;100641.22;;;7.60;51.71
71795;BME280;59641;45.188;5.712;2023-02-15T08:48:53;100645.22;;;7.64;51.92
71795;BME280;59641;45.188;5.712;2023-02-15T08:51:23;100639.38;;;7.68;51.81
71795;BME280;59641;45.188;5.712;2023-02-15T08:53:51;100635.19;;;7.74;51.83
71795;BME280;59641;45.188;5.712;2023-02-15T08:56:19;100639.03;;;7.80;51.61
71795;BME280;59641;45.188;5.712;2023-02-15T08:58:45;100632.31;;;7.84;51.73
71795;BME280;59641;45.188;5.712;2023-02-15T09:01:19;100632.66;;;7.89;51.71
71795;BME280;59641;45.188;5.712;2023-02-15T09:03:49;100625.63;;;7.96;51.56
71795;BME280;59641;45.188;5.712;2023-02-15T09:06:16;100626.09;;;8.00;51.59
71795;BME280;59641;45.188;5.712;2023-02-15T09:08:42;100621.91;;;8.05;51.63
71795;BME280;59641;45.188;5.712;2023-02-15T09:11:17;100617.53;;;8.13;51.34
71795;BME280;59641;45.188;5.712;2023-02-15T09:13:55;100613.50;;;8.17;51.42
71795;BME280;59641;45.188;5.712;2023-02-15T09:16:23;100622.03;;;8.20;51.17
71795;BME280;59641;45.188;5.712;2023-02-15T09:18:49;100611.81;;;8.24;51.35
71795;BME280;59641;45.188;5.712;2023-02-15T09:21:18;100616.47;;;8.30;51.23
71795;BME280;59641;45.188;5.712;2023-02-15T09:23:45;100609.44;;;8.37;51.12
71795;BME280;59641;45.188;5.712;2023-02-15T09:26:13;100610.59;;;8.43;51.06
71795;BME280;59641;45.188;5.712;2023-02-15T09:28:40;100600.19;;;8.48;50.86
71795;BME280;59641;45.188;5.712;2023-02-15T09:31:12;100601.31;;;8.53;50.95
71795;BME280;59641;45.188;5.712;2023-02-15T09:33:39;100610.31;;;8.61;50.87
71795;BME280;59641;45.188;5.712;2023-02-15T09:36:12;100602.56;;;8.66;50.64
71795;BME280;59641;45.188;5.712;2023-02-15T09:38:38;100596.69;;;8.70;50.61
71795;BME280;59641;45.188;5.712;2023-02-15T09:44:35;100602.84;;;8.79;50.31
71795;BME280;59641;45.188;5.712;2023-02-15T09:50:15;100596.06;;;8.91;50.25
71795;BME280;59641;45.188;5.712;2023-02-15T10:05:49;100578.91;;;9.24;49.96
71795;BME280;59641;45.188;5.712;2023-02-15T10:14:21;100575.16;;;9.48;49.31
71795;BME280;59641;45.188;5.712;2023-02-15T10:22:35;100561.94;;;9.61;49.13
71795;BME280;59641;45.188;5.712;2023-02-15T10:27:45;100560.47;;;9.73;48.71
71795;BME280;59641;45.188;5.712;2023-02-15T10:30:14;100555.75;;;9.75;48.53
71795;BME280;59641;45.188;5.712;2023-02-15T10:35:36;100556.78;;;9.89;48.36
71795;BME280;59641;45.188;5.712;2023-02-15T10:44:05;100547.97;;;10.10;48.14
71795;BME280;59641;45.188;5.712;2023-02-15T10:46:51;100541.84;;;10.16;48.15
71795;BME280;59641;45.188;5.712;2023-02-15T10:52:25;100536.09;;;10.34;47.83
71795;BME280;59641;45.188;5.712;2023-02-15T10:55:16;100525.06;;;10.44;47.70
71795;BME280;59641;45.188;5.712;2023-02-15T10:58:05;100519.56;;;10.52;47.38
71795;BME280;59641;45.188;5.712;2023-02-15T11:00:45;100523.13;;;10.59;47.41
71795;BME280;59641;45.188;5.712;2023-02-15T11:06:08;100516.47;;;10.77;47.20
71795;BME280;59641;45.188;5.712;2023-02-15T11:08:43;100511.00;;;10.85;47.35
71795;BME280;59641;45.188;5.712;2023-02-15T11:11:13;100504.00;;;10.91;47.24
71795;BME280;59641;45.188;5.712;2023-02-15T11:13:48;100501.16;;;10.99;47.17
71795;BME280;59641;45.188;5.712;2023-02-15T11:16:21;100499.38;;;11.06;47.27
71795;BME280;59641;45.188;5.712;2023-02-15T11:18:54;100495.91;;;11.12;47.18
71795;BME280;59641;45.188;5.712;2023-02-15T11:21:26;100490.97;;;11.16;47.13
71795;BME280;59641;45.188;5.712;2023-02-15T11:23:53;100483.34;;;11.19;46.78
71795;BME280;59641;45.188;5.712;2023-02-15T11:26:27;100479.44;;;11.22;46.85
71795;BME280;59641;45.188;5.712;2023-02-15T11:31:45;100473.91;;;11.30;46.89
71795;BME280;59641;45.188;5.712;2023-02-15T11:34:28;100474.13;;;11.35;46.80
71795;BME280;59641;45.188;5.712;2023-02-15T11:36:59;100474.59;;;11.39;46.91
71795;BME280;59641;45.188;5.712;2023-02-15T11:39:26;100462.41;;;11.43;46.94
71795;BME280;59641;45.188;5.712;2023-02-15T11:41:59;100456.63;;;11.46;46.94
71795;BME280;59641;45.188;5.712;2023-02-15T11:44:34;100449.00;;;11.49;47.23
71795;BME280;59641;45.188;5.712;2023-02-15T11:47:02;100447.16;;;11.50;47.19
71795;BME280;59641;45.188;5.712;2023-02-15T11:49:31;100446.75;;;11.53;47.35
71795;BME280;59641;45.188;5.712;2023-02-15T11:51:57;100444.47;;;11.57;47.67
71795;BME280;59641;45.188;5.712;2023-02-15T11:54:29;100444.75;;;11.62;47.33
71795;BME280;59641;45.188;5.712;2023-02-15T11:57:11;100441.63;;;11.65;47.19
71795;BME280;59641;45.188;5.712;2023-02-15T11:59:44;100440.41;;;11.67;47.14
71795;BME280;59641;45.188;5.712;2023-02-15T12:02:18;100439.00;;;11.71;47.25
71795;BME280;59641;45.188;5.712;2023-02-15T12:04:49;100424.31;;;11.74;47.49
71795;BME280;59641;45.188;5.712;2023-02-15T12:07:29;100422.84;;;11.78;47.12
71795;BME280;59641;45.188;5.712;2023-02-15T12:12:37;100409.44;;;11.85;47.55
71795;BME280;59641;45.188;5.712;2023-02-15T12:15:08;100412.38;;;11.90;47.59
71795;BME280;59641;45.188;5.712;2023-02-15T12:17:53;100415.50;;;11.93;47.50
71795;BME280;59641;45.188;5.712;2023-02-15T12:20:30;100405.38;;;11.96;47.43
71795;BME280;59641;45.188;5.712;2023-02-15T12:23:20;100401.44;;;11.98;47.06
71795;BME280;59641;45.188;5.712;2023-02-15T12:25:51;100396.47;;;12.02;47.03
71795;BME280;59641;45.188;5.712;2023-02-15T12:28:25;100393.38;;;12.05;46.84
71795;BME280;59641;45.188;5.712;2023-02-15T12:30:53;100391.09;;;12.08;47.07
71795;BME280;59641;45.188;5.712;2023-02-15T12:33:27;100375.38;;;12.12;47.25
71795;BME280;59641;45.188;5.712;2023-02-15T12:35:58;100379.31;;;12.16;47.33
71795;BME280;59641;45.188;5.712;2023-02-15T12:38:26;100373.31;;;12.21;47.60
71795;BME280;59641;45.188;5.712;2023-02-15T12:41:22;100366.09;;;12.28;47.69
71795;BME280;59641;45.188;5.712;2023-02-15T12:44:06;100360.91;;;12.33;48.05
71795;BME280;59641;45.188;5.712;2023-02-15T12:46:33;100356.16;;;12.35;47.90
71795;BME280;59641;45.188;5.712;2023-02-15T12:51:58;100354.47;;;12.47;47.77
71795;BME280;59641;45.188;5.712;2023-02-15T12:56:50;100347.44;;;12.53;47.49
71795;BME280;59641;45.188;5.712;2023-02-15T12:59:16;100345.16;;;12.56;47.47
71795;BME280;59641;45.188;5.712;2023-02-15T13:01:46;100340.16;;;12.60;47.10
71795;BME280;59641;45.188;5.712;2023-02-15T13:04:27;100341.84;;;12.68;47.11
71795;BME280;59641;45.188;5.712;2023-02-15T13:06:58;100332.72;;;12.69;47.25
71795;BME280;59641;45.188;5.712;2023-02-15T13:12:23;100335.41;;;12.82;47.11
71795;BME280;59641;45.188;5.712;2023-02-15T13:14:52;100320.44;;;12.86;47.07
71795;BME280;59641;45.188;5.712;2023-02-15T13:17:32;100323.31;;;12.91;47.20
71795;BME280;59641;45.188;5.712;2023-02-15T13:20:05;100327.06;;;12.97;47.42
71795;BME280;59641;45.188;5.712;2023-02-15T13:22:39;100320.81;;;13.03;47.20
71795;BME280;59641;45.188;5.712;2023-02-15T13:25:22;100319.97;;;13.09;47.18
71795;BME280;59641;45.188;5.712;2023-02-15T13:27:57;100319.09;;;13.15;46.87
71795;BME280;59641;45.188;5.712;2023-02-15T13:30:32;100313.06;;;13.20;47.08
71795;BME280;59641;45.188;5.712;2023-02-15T13:33:05;100317.81;;;13.25;46.65
71795;BME280;59641;45.188;5.712;2023-02-15T13:36:00;100306.22;;;13.31;46.73
71795;BME280;59641;45.188;5.712;2023-02-15T13:41:37;100306.78;;;13.39;46.49
71795;BME280;59641;45.188;5.712;2023-02-15T13:44:35;100316.53;;;13.47;46.81
71795;BME280;59641;45.188;5.712;2023-02-15T13:50:06;100314.63;;;13.54;46.67
71795;BME280;59641;45.188;5.712;2023-02-15T13:52:47;100323.28;;;13.56;46.78
71795;BME280;59641;45.188;5.712;2023-02-15T14:01:10;100311.66;;;13.62;46.52
71795;BME280;59641;45.188;5.712;2023-02-15T14:15:18;100315.31;;;13.75;45.59
71795;BME280;59641;45.188;5.712;2023-02-15T14:20:41;100323.38;;;13.81;45.96
71795;BME280;59641;45.188;5.712;2023-02-15T14:23:31;100313.19;;;13.83;45.19
71795;BME280;59641;45.188;5.712;2023-02-15T14:32:08;100324.16;;;13.89;45.22
71795;BME280;59641;45.188;5.712;2023-02-15T14:34:48;100323.09;;;13.90;45.22
71795;BME280;59641;45.188;5.712;2023-02-15T14:37:22;100314.78;;;13.91;45.18
71795;BME280;59641;45.188;5.712;2023-02-15T14:43:19;100319.53;;;13.96;44.95
71795;BME280;59641;45.188;5.712;2023-02-15T14:48:42;100320.53;;;14.01;44.27
71795;BME280;59641;45.188;5.712;2023-02-15T14:51:09;100317.63;;;14.03;44.40
71795;BME280;59641;45.188;5.712;2023-02-15T14:53:38;100310.75;;;14.07;43.55
71795;BME280;59641;45.188;5.712;2023-02-15T14:56:05;100319.41;;;14.09;43.87
71795;BME280;59641;45.188;5.712;2023-02-15T14:58:32;100324.16;;;14.14;43.60
71795;BME280;59641;45.188;5.712;2023-02-15T15:01:08;100316.22;;;14.19;43.69
71795;BME280;59641;45.188;5.712;2023-02-15T15:03:35;100318.50;;;14.22;43.50
71795;BME280;59641;45.188;5.712;2023-02-15T15:06:03;100318.06;;;14.25;43.45
71795;BME280;59641;45.188;5.712;2023-02-15T15:08:40;100325.50;;;14.30;43.59
71795;BME280;59641;45.188;5.712;2023-02-15T15:13:57;100323.41;;;14.32;43.51
71795;BME280;59641;45.188;5.712;2023-02-15T15:19:03;100325.44;;;14.36;43.24
71795;BME280;59641;45.188;5.712;2023-02-15T15:22:02;100322.91;;;14.41;43.48
71795;BME280;59641;45.188;5.712;2023-02-15T15:47:06;100329.63;;;14.57;42.95
71795;BME280;59641;45.188;5.712;2023-02-15T15:49:15;100327.78;;;14.58;42.95
71795;BME280;59641;45.188;5.712;2023-02-15T15:51:42;100325.91;;;14.58;43.10
71795;BME280;59641;45.188;5.712;2023-02-15T15:54:15;100336.69;;;14.58;43.33